createdAt,value
2022-11-18T00:01:37.932Z,29.83
2022-11-18T00:04:08.359Z,28.77
2022-11-18T00:06:38.862Z,27.80
2022-11-18T00:09:11.506Z,29.70
2022-11-18T00:11:59.966Z,30.23
2022-11-18T00:14:30.385Z,29.43
2022-11-18T00:17:06.202Z,27.40
2022-11-18T00:19:39.217Z,24.90
2022-11-18T00:22:12.763Z,28.73
2022-11-18T00:24:44.901Z,28.67
2022-11-18T00:27:15.659Z,28.43
2022-11-18T00:29:47.584Z,30.03
2022-11-18T00:32:19.628Z,26.83
2022-11-18T00:34:50.043Z,28.20
2022-11-18T00:37:20.782Z,28.20
2022-11-18T00:39:51.125Z,24.83
2022-11-18T00:42:39.423Z,26.50
2022-11-18T00:45:12.605Z,26.63
2022-11-18T00:47:43.071Z,23.83
2022-11-18T00:50:14.939Z,27.57
2022-11-18T00:52:45.474Z,27.33
2022-11-18T00:55:17.390Z,25.60
2022-11-18T00:57:48.342Z,24.80
2022-11-18T01:00:19.371Z,27.00
2022-11-18T01:02:49.701Z,26.23
2022-11-18T01:05:21.354Z,25.00
2022-11-18T01:07:51.744Z,26.80
2022-11-18T01:10:22.134Z,25.57
2022-11-18T01:13:10.510Z,27.03
2022-11-18T01:15:42.705Z,26.83
2022-11-18T01:18:13.160Z,28.07
2022-11-18T01:20:43.992Z,27.50
2022-11-18T01:23:15.842Z,27.13
2022-11-18T01:25:48.401Z,22.60
2022-11-18T01:28:23.952Z,23.77
2022-11-18T01:30:53.071Z,24.40
2022-11-18T01:33:23.457Z,26.00
2022-11-18T01:35:53.785Z,24.87
2022-11-18T01:38:24.105Z,26.30
2022-11-18T01:40:55.336Z,26.73
2022-11-18T01:43:25.773Z,22.00
2022-11-18T01:45:56.193Z,23.90
2022-11-18T01:48:31.207Z,28.13
2022-11-18T01:51:13.119Z,22.13
2022-11-18T01:53:49.175Z,25.27
2022-11-18T01:56:25.116Z,25.73
2022-11-18T01:59:01.571Z,23.90
2022-11-18T02:01:32.583Z,24.53
2022-11-18T02:04:02.977Z,24.40
2022-11-18T02:06:35.056Z,26.30
2022-11-18T02:09:06.023Z,25.67
2022-11-18T02:11:54.156Z,26.40
2022-11-18T02:14:30.772Z,25.43
2022-11-18T02:17:27.036Z,26.10
2022-11-18T02:20:20.183Z,21.80
2022-11-18T02:23:23.092Z,23.87
2022-11-18T02:26:14.883Z,27.40
2022-11-18T02:29:05.075Z,25.20
2022-11-18T02:31:47.558Z,23.60
2022-11-18T02:34:23.925Z,25.87
2022-11-18T02:37:00.362Z,22.33
2022-11-18T02:39:36.557Z,22.07
2022-11-18T02:42:10.114Z,23.03
2022-11-18T02:44:45.017Z,28.37
2022-11-18T02:47:19.058Z,24.90
2022-11-18T02:49:55.066Z,24.37
2022-11-18T02:52:28.279Z,25.00
2022-11-18T02:55:00.959Z,22.80
2022-11-18T02:57:33.958Z,26.20
2022-11-18T03:00:05.916Z,26.03
2022-11-18T03:02:51.260Z,22.80
2022-11-18T03:05:32.230Z,18.93
2022-11-18T03:08:05.694Z,25.00
2022-11-18T03:10:39.302Z,25.40
2022-11-18T03:13:21.987Z,26.63
2022-11-18T03:15:58.215Z,23.47
2022-11-18T03:18:52.581Z,26.63
2022-11-18T03:21:28.758Z,26.67
2022-11-18T03:24:02.286Z,27.50
2022-11-18T03:26:38.797Z,28.50
2022-11-18T03:29:18.029Z,28.73
2022-11-18T03:31:56.627Z,29.47
2022-11-18T03:34:30.060Z,32.23
2022-11-18T03:37:07.634Z,29.20
2022-11-18T03:39:38.335Z,31.20
2022-11-18T03:42:20.868Z,31.63
2022-11-18T03:44:57.388Z,28.80
2022-11-18T03:47:33.125Z,25.60
2022-11-18T03:50:07.036Z,29.70
2022-11-18T03:52:39.800Z,32.77
2022-11-18T03:55:23.335Z,28.97
2022-11-18T03:58:13.147Z,30.37
2022-11-18T04:00:47.385Z,34.33
2022-11-18T04:03:21.051Z,33.47
2022-11-18T04:05:54.738Z,23.40
2022-11-18T04:08:29.880Z,30.37
2022-11-18T04:11:36.583Z,30.63
2022-11-18T04:14:09.187Z,30.87
2022-11-18T04:16:44.590Z,34.60
2022-11-18T04:19:19.082Z,33.47
2022-11-18T04:21:50.537Z,35.00
2022-11-18T04:24:22.423Z,34.13
2022-11-18T04:26:53.098Z,35.87
2022-11-18T04:29:25.069Z,31.87
2022-11-18T04:31:55.528Z,39.30
2022-11-18T04:34:26.218Z,38.27
2022-11-18T04:36:56.798Z,41.37
2022-11-18T04:39:27.389Z,38.00
2022-11-18T04:41:59.164Z,37.13
2022-11-18T04:44:32.995Z,40.00
2022-11-18T04:47:06.346Z,42.13
2022-11-18T04:49:38.987Z,39.90
2022-11-18T04:52:12.441Z,41.87
2022-11-18T04:54:44.097Z,39.67
2022-11-18T04:57:15.238Z,37.53
2022-11-18T04:59:45.791Z,41.90
2022-11-18T05:02:17.836Z,40.13
2022-11-18T05:04:48.267Z,43.10
2022-11-18T05:07:18.966Z,42.70
2022-11-18T05:09:49.928Z,40.57
2022-11-18T05:12:38.393Z,44.83
2022-11-18T05:15:10.938Z,39.50
2022-11-18T05:17:41.699Z,40.20
2022-11-18T05:20:15.553Z,36.23
2022-11-18T05:22:47.614Z,38.97
2022-11-18T05:25:18.514Z,37.60
2022-11-18T05:27:57.205Z,38.37
2022-11-18T05:30:27.576Z,38.20
2022-11-18T05:33:02.126Z,36.40
2022-11-18T05:35:32.480Z,37.60
2022-11-18T05:38:08.451Z,39.33
2022-11-18T05:40:40.149Z,37.70
2022-11-18T05:43:12.072Z,35.90
2022-11-18T05:45:44.530Z,37.73
2022-11-18T05:48:15.221Z,40.90
2022-11-18T05:50:50.451Z,36.13
2022-11-18T05:53:25.149Z,37.80
2022-11-18T05:56:04.751Z,34.70
2022-11-18T05:58:35.615Z,32.43
2022-11-18T06:01:10.705Z,33.50
2022-11-18T06:03:42.685Z,34.50
2022-11-18T06:06:16.593Z,33.20
2022-11-18T06:09:01.694Z,29.27
2022-11-18T06:11:35.333Z,32.03
2022-11-18T06:14:11.054Z,30.80
2022-11-18T06:16:46.325Z,29.37
2022-11-18T06:19:24.841Z,25.47
2022-11-18T06:21:52.616Z,27.83
2022-11-18T06:24:28.530Z,23.83
2022-11-18T06:27:02.161Z,20.97
2022-11-18T06:29:33.008Z,25.13
2022-11-18T06:32:04.282Z,21.40
2022-11-18T06:34:41.209Z,21.53
2022-11-18T06:37:18.007Z,26.23
2022-11-18T06:39:48.612Z,24.27
2022-11-18T06:42:37.471Z,27.07
2022-11-18T06:45:09.108Z,26.90
2022-11-18T06:47:40.980Z,27.60
2022-11-18T06:50:13.375Z,16.20
2022-11-18T06:52:44.114Z,26.27
2022-11-18T06:55:15.091Z,29.97
2022-11-18T06:57:47.055Z,25.80
2022-11-18T07:00:18.969Z,24.10
2022-11-18T07:02:49.511Z,24.37
2022-11-18T07:05:21.670Z,25.60
2022-11-18T07:07:52.395Z,26.10
2022-11-18T07:10:22.994Z,26.90
2022-11-18T07:12:53.952Z,25.83
2022-11-18T07:15:24.544Z,23.23
2022-11-18T07:17:55.911Z,27.90
2022-11-18T07:20:26.544Z,24.70
2022-11-18T07:22:58.023Z,23.53
2022-11-18T07:25:28.627Z,26.50
2022-11-18T07:28:00.229Z,28.00
2022-11-18T07:30:32.202Z,24.30
2022-11-18T07:33:04.243Z,25.97
2022-11-18T07:35:34.801Z,28.17
2022-11-18T07:38:07.423Z,25.80
2022-11-18T07:40:37.815Z,25.53
2022-11-18T07:43:08.928Z,24.17
2022-11-18T07:45:40.583Z,22.13
2022-11-18T07:48:12.797Z,23.70
2022-11-18T07:50:47.265Z,21.87
2022-11-18T07:53:18.276Z,23.97
2022-11-18T07:55:48.701Z,26.50
2022-11-18T07:58:21.273Z,25.07
2022-11-18T08:00:52.118Z,25.87
2022-11-18T08:03:27.872Z,29.17
2022-11-18T08:06:03.140Z,23.07
2022-11-18T08:08:36.435Z,27.33
2022-11-18T08:11:09.933Z,23.70
2022-11-18T08:13:42.851Z,29.60
2022-11-18T08:16:20.897Z,24.13
2022-11-18T08:18:53.449Z,24.67
2022-11-18T08:21:25.305Z,23.20
2022-11-18T08:23:57.798Z,25.80
2022-11-18T08:26:30.232Z,25.27
2022-11-18T08:29:02.932Z,26.07
2022-11-18T08:31:34.321Z,26.07
2022-11-18T08:34:08.016Z,25.17
2022-11-18T08:36:39.633Z,23.57
2022-11-18T08:39:12.220Z,23.00
2022-11-18T08:41:46.299Z,22.67
2022-11-18T08:44:19.733Z,24.47
2022-11-18T08:46:50.732Z,18.00
2022-11-18T08:49:25.112Z,21.10
2022-11-18T08:51:56.397Z,25.67
2022-11-18T08:54:28.785Z,20.33
2022-11-18T08:56:59.524Z,25.23
2022-11-18T08:59:30.073Z,23.60
2022-11-18T09:02:08.079Z,20.33
2022-11-18T09:04:38.789Z,24.33
2022-11-18T09:07:12.376Z,22.87
2022-11-18T09:09:52.091Z,19.70
2022-11-18T09:12:23.947Z,20.17
2022-11-18T09:15:12.889Z,21.80
2022-11-18T09:17:26.505Z,19.80
2022-11-18T09:19:57.016Z,25.00
2022-11-18T09:22:28.991Z,26.70
2022-11-18T09:24:59.555Z,19.10
2022-11-18T09:27:30.697Z,22.13
2022-11-18T09:30:02.217Z,20.73
2022-11-18T09:32:34.778Z,18.10
2022-11-18T09:35:05.859Z,24.67
2022-11-18T09:37:36.624Z,22.67
2022-11-18T09:40:10.362Z,24.47
2022-11-18T09:43:01.014Z,23.20
2022-11-18T09:45:37.513Z,18.97
2022-11-18T09:48:16.905Z,19.97
2022-11-18T09:50:50.049Z,20.20
2022-11-18T09:53:25.353Z,17.03
2022-11-18T09:55:57.693Z,16.87
2022-11-18T09:58:36.484Z,19.23
2022-11-18T10:01:15.855Z,15.07
2022-11-18T10:03:47.746Z,14.27
2022-11-18T10:06:34.227Z,14.20
2022-11-18T10:09:25.997Z,10.80
2022-11-18T10:12:29.266Z,14.53
2022-11-18T10:15:18.935Z,14.43
2022-11-18T10:18:09.383Z,10.53
2022-11-18T10:20:46.675Z,8.87
2022-11-18T10:23:23.064Z,9.13
2022-11-18T10:25:55.870Z,9.17
2022-11-18T10:28:32.019Z,7.93
2022-11-18T10:31:11.397Z,10.77
2022-11-18T10:33:43.623Z,10.87
2022-11-18T10:36:28.629Z,8.77
2022-11-18T10:39:16.676Z,7.43
2022-11-18T10:41:50.653Z,7.80
2022-11-18T10:44:33.148Z,9.77
2022-11-18T10:47:26.820Z,8.63
2022-11-18T10:50:01.035Z,9.13
2022-11-18T10:52:32.804Z,10.23
2022-11-18T10:55:11.072Z,8.97
2022-11-18T10:57:43.962Z,9.80
2022-11-18T11:00:36.137Z,8.60
2022-11-18T11:03:27.990Z,9.00
2022-11-18T11:06:32.080Z,8.17
2022-11-18T11:09:06.768Z,10.03
2022-11-18T11:11:41.991Z,9.47
2022-11-18T11:14:26.566Z,10.50
2022-11-18T11:17:00.524Z,11.07
2022-11-18T11:19:35.191Z,9.53
2022-11-18T11:22:10.188Z,11.00
2022-11-18T11:24:43.979Z,11.07
2022-11-18T11:30:20.325Z,10.70
2022-11-18T11:33:10.159Z,11.80
2022-11-18T11:36:02.755Z,9.90
2022-11-18T11:38:42.693Z,11.90
2022-11-18T11:41:25.107Z,11.40
2022-11-18T11:44:15.251Z,8.70
2022-11-18T11:47:24.017Z,9.73
2022-11-18T11:50:04.255Z,12.47
2022-11-18T11:52:37.872Z,11.03
2022-11-18T11:55:22.584Z,13.03
2022-11-18T11:58:12.346Z,14.60
2022-11-18T12:00:47.095Z,13.23
2022-11-18T12:03:35.636Z,12.73
2022-11-18T12:06:08.076Z,9.63
2022-11-18T12:08:41.106Z,11.57
2022-11-18T12:11:21.328Z,11.10
2022-11-18T12:13:57.861Z,10.80
2022-11-18T12:16:43.380Z,11.23
2022-11-18T12:19:22.530Z,10.03
2022-11-18T12:22:01.069Z,15.13
2022-11-18T12:24:37.717Z,10.17
2022-11-18T12:27:22.090Z,12.60
2022-11-18T12:29:55.958Z,11.57
2022-11-18T12:32:48.963Z,7.57
2022-11-18T12:35:28.460Z,9.40
2022-11-18T12:38:03.464Z,7.53
2022-11-18T12:40:52.813Z,9.13
2022-11-18T12:43:47.789Z,8.53
2022-11-18T12:46:45.705Z,11.00
2022-11-18T12:49:28.116Z,12.53
2022-11-18T12:52:01.063Z,9.93
2022-11-18T12:54:37.193Z,10.03
2022-11-18T12:57:22.400Z,10.83
2022-11-18T12:59:52.977Z,8.83
2022-11-18T13:02:27.413Z,8.93
2022-11-18T13:05:08.420Z,9.30
2022-11-18T13:08:05.397Z,8.40
2022-11-18T13:10:39.038Z,9.80
2022-11-18T13:13:21.887Z,9.20
2022-11-18T13:16:11.428Z,9.53
2022-11-18T13:18:54.864Z,8.33
2022-11-18T13:21:50.209Z,9.77
2022-11-18T13:24:23.261Z,7.80
2022-11-18T13:26:59.004Z,8.83
2022-11-18T13:29:52.676Z,8.70
2022-11-18T13:32:27.892Z,9.67
2022-11-18T13:35:01.595Z,8.70
2022-11-18T13:37:34.911Z,10.10
2022-11-18T13:40:11.259Z,11.43
2022-11-18T13:42:45.293Z,8.83
2022-11-18T13:45:16.382Z,8.67
2022-11-18T13:47:55.670Z,9.07
2022-11-18T13:50:38.411Z,11.23
2022-11-18T13:53:27.374Z,9.27
2022-11-18T13:56:03.895Z,8.20
2022-11-18T13:59:15.734Z,7.40
2022-11-18T14:01:22.644Z,8.40
2022-11-18T14:03:59.099Z,10.33
2022-11-18T14:06:34.817Z,11.20
2022-11-18T14:09:09.410Z,7.33
2022-11-18T14:11:42.711Z,9.17
2022-11-18T14:14:16.936Z,8.60
2022-11-18T14:16:49.974Z,7.43
2022-11-18T14:19:32.725Z,10.10
2022-11-18T14:22:12.731Z,8.40
2022-11-18T14:24:41.279Z,8.93
2022-11-18T14:27:36.380Z,7.00
2022-11-18T14:30:34.884Z,6.33
2022-11-18T14:33:08.788Z,5.90
2022-11-18T14:35:46.088Z,5.83
2022-11-18T14:41:07.693Z,6.53
2022-11-18T14:43:38.400Z,5.53
2022-11-18T14:46:17.784Z,5.23
2022-11-18T14:48:48.574Z,5.67
2022-11-18T14:51:19.397Z,5.20
2022-11-18T14:53:49.875Z,5.17
2022-11-18T14:56:27.692Z,4.10
2022-11-18T14:59:02.241Z,5.83
2022-11-18T15:01:33.790Z,4.67
2022-11-18T15:04:07.008Z,8.67
2022-11-18T15:06:38.657Z,5.73
2022-11-18T15:09:10.915Z,5.83
2022-11-18T15:11:41.698Z,6.80
2022-11-18T15:14:13.317Z,5.00
2022-11-18T15:16:45.683Z,5.90
2022-11-18T15:19:17.595Z,5.30
2022-11-18T15:21:51.081Z,6.73
2022-11-18T15:24:21.610Z,6.97
2022-11-18T15:26:53.462Z,7.03
2022-11-18T15:29:27.835Z,7.73
2022-11-18T15:31:58.356Z,5.97
2022-11-18T15:34:29.051Z,5.57
2022-11-18T15:36:59.516Z,7.97
2022-11-18T15:39:29.947Z,6.57
2022-11-18T15:42:00.446Z,7.13
2022-11-18T15:44:30.784Z,5.77
2022-11-18T15:47:01.680Z,6.57
2022-11-18T15:49:35.089Z,6.13
2022-11-18T15:52:08.727Z,5.40
2022-11-18T15:54:41.862Z,6.10
2022-11-18T15:57:12.535Z,6.77
2022-11-18T15:59:43.136Z,6.70
2022-11-18T16:02:14.570Z,5.37
2022-11-18T16:04:45.067Z,5.40
2022-11-18T16:07:16.894Z,5.47
2022-11-18T16:10:05.657Z,5.73
2022-11-18T16:12:51.297Z,8.07
2022-11-18T16:15:40.981Z,7.40
2022-11-18T16:18:12.920Z,7.07
2022-11-18T16:20:43.745Z,7.30
2022-11-18T16:23:15.479Z,7.80
2022-11-18T16:25:46.717Z,7.30
2022-11-18T16:28:20.018Z,8.77
2022-11-18T16:31:10.827Z,7.87
2022-11-18T16:33:42.473Z,6.53
2022-11-18T16:36:14.553Z,8.37
2022-11-18T16:38:45.038Z,8.47
2022-11-18T16:41:32.023Z,7.90
2022-11-18T16:44:06.970Z,10.67
2022-11-18T16:46:42.758Z,8.07
2022-11-18T16:49:14.994Z,7.90
2022-11-18T16:51:47.546Z,7.53
2022-11-18T16:54:25.368Z,8.00
2022-11-18T16:56:58.824Z,8.67
2022-11-18T16:59:31.315Z,8.60
2022-11-18T17:02:02.210Z,8.07
2022-11-18T17:04:37.197Z,10.10
2022-11-18T17:07:07.709Z,9.90
2022-11-18T17:09:38.479Z,8.07
2022-11-18T17:12:10.412Z,8.67
2022-11-18T17:14:42.479Z,6.63
2022-11-18T17:17:14.403Z,8.67
2022-11-18T17:19:44.765Z,8.37
2022-11-18T17:22:17.615Z,10.27
2022-11-18T17:24:48.112Z,9.83
2022-11-18T17:27:18.812Z,10.73
2022-11-18T17:29:52.760Z,11.63
2022-11-18T17:32:25.633Z,10.80
2022-11-18T17:34:56.465Z,12.50
2022-11-18T17:37:28.524Z,13.17
2022-11-18T17:40:02.036Z,14.77
2022-11-18T17:42:34.028Z,11.30
2022-11-18T17:45:06.960Z,16.70
2022-11-18T17:47:37.454Z,12.83
2022-11-18T17:50:09.581Z,17.20
2022-11-18T17:52:41.914Z,16.37
2022-11-18T17:55:12.414Z,14.93
2022-11-18T17:57:43.720Z,14.30
2022-11-18T18:00:19.617Z,15.53
2022-11-18T18:02:51.872Z,16.83
2022-11-18T18:05:22.474Z,9.97
2022-11-18T18:07:54.644Z,9.43
2022-11-18T18:10:26.421Z,11.13
2022-11-18T18:13:15.916Z,8.73
2022-11-18T18:15:46.620Z,11.80
2022-11-18T18:18:17.162Z,9.87
2022-11-18T18:20:47.749Z,9.97
2022-11-18T18:23:18.097Z,9.40
2022-11-18T18:25:48.569Z,12.20
2022-11-18T18:28:19.202Z,10.83
2022-11-18T18:30:52.758Z,10.47
2022-11-18T18:33:24.972Z,9.03
2022-11-18T18:35:57.823Z,11.37
2022-11-18T18:38:32.132Z,11.83
2022-11-18T18:41:08.949Z,11.10
2022-11-18T18:43:40.445Z,12.30
2022-11-18T18:46:29.869Z,10.30
2022-11-18T18:49:13.313Z,11.30
2022-11-18T18:51:46.397Z,13.07
2022-11-18T18:54:19.958Z,13.30
2022-11-18T18:56:52.416Z,16.33
2022-11-18T18:59:23.619Z,17.17
2022-11-18T19:01:54.064Z,18.77
2022-11-18T19:04:24.748Z,20.10
2022-11-18T19:07:00.084Z,19.93
2022-11-18T19:09:29.692Z,21.47
2022-11-18T19:12:22.593Z,19.83
2022-11-18T19:14:54.443Z,19.60
2022-11-18T19:17:24.970Z,18.80
2022-11-18T19:20:15.549Z,21.67
2022-11-18T19:22:47.762Z,22.37
2022-11-18T19:25:21.492Z,20.03
2022-11-18T19:27:56.491Z,21.00
2022-11-18T19:30:27.737Z,18.27
2022-11-18T19:32:59.476Z,20.70
2022-11-18T19:35:31.783Z,20.50
2022-11-18T19:38:01.918Z,21.17
2022-11-18T19:40:32.547Z,20.37
2022-11-18T19:43:04.982Z,21.00
2022-11-18T19:45:37.082Z,22.23
2022-11-18T19:48:12.860Z,23.10
2022-11-18T19:50:47.850Z,24.50
2022-11-18T19:53:34.903Z,25.37
2022-11-18T19:56:10.429Z,23.57
2022-11-18T19:58:45.534Z,23.93
2022-11-18T20:01:20.552Z,25.80
2022-11-18T20:03:53.467Z,25.60
2022-11-18T20:06:24.915Z,25.50
2022-11-18T20:09:00.284Z,23.30
2022-11-18T20:11:33.878Z,20.50
2022-11-18T20:14:08.704Z,17.97
2022-11-18T20:16:44.702Z,21.00
2022-11-18T20:19:19.184Z,19.87
2022-11-18T20:21:54.327Z,19.60
2022-11-18T20:24:25.288Z,20.90
2022-11-18T20:26:57.760Z,19.50
2022-11-18T20:29:30.440Z,19.67
2022-11-18T20:32:03.055Z,19.97
2022-11-18T20:34:39.605Z,19.60
2022-11-18T20:37:09.901Z,19.10
2022-11-18T20:39:40.764Z,23.67
2022-11-18T20:42:28.972Z,24.47
2022-11-18T20:45:00.050Z,24.43
2022-11-18T20:47:30.569Z,28.27
2022-11-18T20:50:01.176Z,22.67
2022-11-18T20:52:35.009Z,22.00
2022-11-18T20:55:11.183Z,23.30
2022-11-18T20:57:39.907Z,19.57
2022-11-18T21:00:11.920Z,22.90
2022-11-18T21:02:43.862Z,17.70
2022-11-18T21:05:15.845Z,18.57
2022-11-18T21:07:50.321Z,20.87
2022-11-18T21:10:23.133Z,16.63
2022-11-18T21:13:11.588Z,25.87
2022-11-18T21:15:44.238Z,23.27
2022-11-18T21:18:17.764Z,21.33
2022-11-18T21:21:06.862Z,19.23
2022-11-18T21:23:37.292Z,19.50
2022-11-18T21:26:13.255Z,18.50
2022-11-18T21:28:42.431Z,16.67
2022-11-18T21:31:16.312Z,15.23
2022-11-18T21:33:47.937Z,17.47
2022-11-18T21:36:21.431Z,13.43
2022-11-18T21:38:52.538Z,15.17
2022-11-18T21:41:25.595Z,18.00
2022-11-18T21:44:05.627Z,13.37
2022-11-18T21:46:32.501Z,15.10
2022-11-18T21:49:05.621Z,16.63
2022-11-18T21:51:38.452Z,15.93
2022-11-18T21:54:12.050Z,16.73
2022-11-18T21:56:42.560Z,16.43
2022-11-18T21:59:16.608Z,18.17
2022-11-18T22:01:48.672Z,15.57
2022-11-18T22:04:36.959Z,16.33
2022-11-18T22:07:08.613Z,14.70
2022-11-18T22:09:39.148Z,14.67
2022-11-18T22:12:10.841Z,16.43
2022-11-18T22:14:43.833Z,13.87
2022-11-18T22:17:14.289Z,15.57
2022-11-18T22:19:45.300Z,14.17
2022-11-18T22:22:20.304Z,17.50
2022-11-18T22:24:52.745Z,17.57
2022-11-18T22:27:29.460Z,15.20
2022-11-18T22:29:58.303Z,17.33
2022-11-18T22:32:29.809Z,17.93
2022-11-18T22:35:02.827Z,16.47
2022-11-18T22:37:35.613Z,22.23
2022-11-18T22:40:07.276Z,18.17
2022-11-18T22:42:52.574Z,17.87
2022-11-18T22:45:26.692Z,18.17
2022-11-18T22:47:57.706Z,17.70
2022-11-18T22:50:30.407Z,16.67
2022-11-18T22:53:00.964Z,17.90
2022-11-18T22:55:34.674Z,17.80
2022-11-18T22:58:06.767Z,15.40
2022-11-18T23:00:40.034Z,16.80
2022-11-18T23:03:11.396Z,18.73
2022-11-18T23:05:44.433Z,18.03
2022-11-18T23:08:17.279Z,17.87
2022-11-18T23:10:50.648Z,18.53
2022-11-18T23:13:39.346Z,22.40
2022-11-18T23:16:11.509Z,24.27
2022-11-18T23:18:44.871Z,18.90
2022-11-18T23:21:16.838Z,22.20
2022-11-18T23:23:48.623Z,22.57
2022-11-18T23:26:19.259Z,24.20
2022-11-18T23:28:49.917Z,21.33
2022-11-18T23:31:26.718Z,22.87
2022-11-18T23:33:59.548Z,21.47
2022-11-18T23:36:30.008Z,20.03
2022-11-18T23:39:01.974Z,19.53
2022-11-18T23:41:34.177Z,20.80
2022-11-18T23:44:07.662Z,18.90
2022-11-18T23:46:39.212Z,19.13
2022-11-18T23:49:10.658Z,17.27
2022-11-18T23:51:41.445Z,16.53
2022-11-18T23:54:13.379Z,20.63
2022-11-18T23:56:43.761Z,19.77
2022-11-18T23:59:14.331Z,19.70
